Lonepine, Louisiana
Current Conditions -  °F | °C
As of 8:35 AM on Friday 28 Nov 2014 (Local Time) from KACP Reporting Station
Clear Clear  
Wind Chill: 42°   Ceiling: Unl
Heat Index: 42°   Visibility: 10mi
Dew Point: 37°   Wind: 0mph
Humidity: 83%   Direction: NA
Pressure: 30.42"   Gusts: NA
Location:  30.8509°N, 92.4107°W
Report Text: KACP 281435Z AUTO 00000KT 10SM CLR 06/03 A3042 RMK AO2 T00570030
Loading
Personal Weather Stations






























Interactive Weather Map New forecast layout! Learn more

10-Day Weather Forecast

Advertisements
Track Severe Weather on mobile